createdAt,value
2022-10-17T00:02:26.688Z,101048.72
2022-10-17T00:05:32.095Z,101051.38
2022-10-17T00:08:37.354Z,101067.56
2022-10-17T00:11:43.448Z,101060.78
2022-10-17T00:14:49.168Z,101066.63
2022-10-17T00:17:54.068Z,101056.41
2022-10-17T00:20:58.840Z,101071.63
2022-10-17T00:24:03.564Z,101076.44
2022-10-17T00:27:10.138Z,101074.78
2022-10-17T00:30:17.121Z,101084.09
2022-10-17T00:33:22.400Z,101083.13
2022-10-17T00:36:28.043Z,101083.13
2022-10-17T00:39:32.895Z,101095.06
2022-10-17T00:42:39.391Z,101088.88
2022-10-17T00:45:44.143Z,101090.69
2022-10-17T00:48:52.648Z,101102.59
2022-10-17T00:52:00.769Z,101086.16
2022-10-17T00:55:10.754Z,101096.50
2022-10-17T00:58:17.571Z,101095.31
2022-10-17T01:01:22.333Z,101094.44
2022-10-17T01:04:27.214Z,101110.56
2022-10-17T01:07:36.328Z,101119.09
2022-10-17T01:10:55.371Z,101113.75
2022-10-17T01:14:09.710Z,101116.50
2022-10-17T01:17:21.422Z,101131.63
2022-10-17T01:21:10.921Z,101140.06
2022-10-17T01:24:48.959Z,101148.75
2022-10-17T01:28:04.349Z,101144.44
2022-10-17T01:31:14.287Z,101140.81
2022-10-17T01:34:23.379Z,101140.03
2022-10-17T01:37:33.354Z,101162.25
2022-10-17T01:40:41.833Z,101167.84
2022-10-17T01:43:53.235Z,101181.56
2022-10-17T01:47:04.902Z,101184.16
2022-10-17T01:50:16.490Z,101184.16
2022-10-17T01:53:26.830Z,101204.53
2022-10-17T01:56:33.861Z,101181.44
2022-10-17T01:59:44.076Z,101185.63
2022-10-17T02:02:53.740Z,101195.00
2022-10-17T02:06:00.359Z,101214.63
2022-10-17T02:09:19.538Z,101216.34
2022-10-17T02:12:39.248Z,101223.94
2022-10-17T02:16:01.033Z,101224.69
2022-10-17T02:19:32.095Z,101234.97
2022-10-17T02:22:43.247Z,101242.66
2022-10-17T02:25:52.882Z,101261.34
2022-10-17T02:29:07.975Z,101250.19
2022-10-17T02:32:25.679Z,101245.94
2022-10-17T02:35:36.143Z,101265.63
2022-10-17T02:38:41.902Z,101270.72
2022-10-17T02:41:47.155Z,101275.06
2022-10-17T02:44:52.368Z,101286.44
2022-10-17T02:48:02.241Z,101281.19
2022-10-17T02:51:14.156Z,101304.16
2022-10-17T02:54:22.726Z,101295.81
2022-10-17T02:57:32.071Z,101309.53
2022-10-17T03:00:37.375Z,101313.06
2022-10-17T03:03:42.222Z,101320.66
2022-10-17T03:06:49.807Z,101326.81
2022-10-17T03:09:56.248Z,101325.97
2022-10-17T03:13:01.209Z,101318.28
2022-10-17T03:16:07.504Z,101336.19
2022-10-17T03:19:13.127Z,101330.31
2022-10-17T03:22:19.582Z,101355.16
2022-10-17T03:25:25.915Z,101349.16
2022-10-17T03:28:30.950Z,101354.34
2022-10-17T03:31:36.042Z,101364.63
2022-10-17T03:34:41.914Z,101372.28
2022-10-17T03:37:49.151Z,101378.44
2022-10-17T03:40:57.855Z,101382.56
2022-10-17T03:44:02.646Z,101387.03
2022-10-17T03:47:09.320Z,101391.97
2022-10-17T03:50:18.756Z,101399.78
2022-10-17T03:53:26.144Z,101409.97
2022-10-17T03:56:31.553Z,101413.47
2022-10-17T03:59:45.347Z,101419.47
2022-10-17T04:02:54.946Z,101438.28
2022-10-17T04:06:00.927Z,101454.63
2022-10-17T04:09:09.199Z,101450.25
2022-10-17T04:12:24.880Z,101465.56
2022-10-17T04:15:30.683Z,101465.59
2022-10-17T04:18:36.183Z,101474.94
2022-10-17T04:21:41.354Z,101478.47
2022-10-17T04:24:48.153Z,101486.13
2022-10-17T04:28:34.319Z,101490.34
2022-10-17T04:31:39.648Z,101501.38
2022-10-17T04:35:01.888Z,101494.66
2022-10-17T04:38:07.022Z,101494.72
2022-10-17T04:41:17.235Z,101508.41
2022-10-17T04:44:22.195Z,101508.34
2022-10-17T04:47:30.239Z,101521.09
2022-10-17T04:50:35.203Z,101524.59
2022-10-17T04:54:02.143Z,101553.47
2022-10-17T04:57:09.644Z,101551.88
2022-10-17T05:00:18.870Z,101564.63
2022-10-17T05:03:49.637Z,101571.63
2022-10-17T05:06:54.866Z,101580.84
2022-10-17T05:10:16.405Z,101591.91
2022-10-17T05:13:25.353Z,101583.31
2022-10-17T05:16:31.574Z,101599.50
2022-10-17T05:19:37.743Z,101604.66
2022-10-17T05:22:43.591Z,101608.13
2022-10-17T05:25:49.547Z,101614.91
2022-10-17T05:28:55.695Z,101614.06
2022-10-17T05:32:03.789Z,101619.25
2022-10-17T05:35:09.769Z,101628.72
2022-10-17T05:38:16.272Z,101636.31
2022-10-17T05:41:22.846Z,101636.38
2022-10-17T05:44:29.529Z,101649.94
2022-10-17T05:47:38.122Z,101655.06
2022-10-17T05:50:42.989Z,101650.84
2022-10-17T05:53:53.077Z,101668.84
2022-10-17T05:57:02.406Z,101667.00
2022-10-17T06:00:14.144Z,101678.19
2022-10-17T06:03:19.215Z,101684.06
2022-10-17T06:06:24.783Z,101682.34
2022-10-17T06:09:30.575Z,101690.88
2022-10-17T06:12:35.530Z,101688.31
2022-10-17T06:15:41.716Z,101689.13
2022-10-17T06:21:53.915Z,101712.16
2022-10-17T06:25:01.071Z,101707.91
2022-10-17T06:28:06.537Z,101713.03
2022-10-17T06:31:17.852Z,101728.34
2022-10-17T06:34:23.560Z,101738.63
2022-10-17T06:37:35.394Z,101736.00
2022-10-17T06:40:43.791Z,101747.09
2022-10-17T06:43:48.855Z,101761.56
2022-10-17T06:47:19.264Z,101769.16
2022-10-17T06:50:25.213Z,101776.75
2022-10-17T06:53:56.708Z,101784.56
2022-10-17T06:57:12.862Z,101798.13
2022-10-17T07:00:44.011Z,101793.06
2022-10-17T07:03:52.349Z,101810.00
2022-10-17T07:10:13.247Z,101825.25
2022-10-17T07:13:20.738Z,101830.41
2022-10-17T07:16:25.504Z,101841.44
2022-10-17T07:19:43.406Z,101844.00
2022-10-17T07:22:48.864Z,101842.28
2022-10-17T07:25:54.652Z,101851.59
2022-10-17T07:29:01.875Z,101848.19
2022-10-17T07:32:16.180Z,101848.13
2022-10-17T07:35:23.368Z,101862.63
2022-10-17T07:38:29.934Z,101866.09
2022-10-17T07:41:35.216Z,101864.28
2022-10-17T07:44:39.925Z,101865.16
2022-10-17T07:47:45.356Z,101872.81
2022-10-17T07:50:54.795Z,101883.72
2022-10-17T07:53:59.660Z,101894.91
2022-10-17T07:57:04.474Z,101899.06
2022-10-17T08:00:11.000Z,101905.03
2022-10-17T08:03:19.859Z,101921.25
2022-10-17T08:06:26.550Z,101921.25
2022-10-17T08:09:31.239Z,101933.28
2022-10-17T08:12:36.051Z,101941.66
2022-10-17T08:15:41.105Z,101944.19
2022-10-17T08:18:46.157Z,101937.38
2022-10-17T08:21:54.345Z,101944.22
2022-10-17T08:24:59.154Z,101940.78
2022-10-17T08:28:04.233Z,101933.88
2022-10-17T08:31:11.742Z,101940.72
2022-10-17T08:34:17.027Z,101949.25
2022-10-17T08:37:23.331Z,101955.09
2022-10-17T08:40:33.719Z,101954.31
2022-10-17T08:44:04.975Z,101961.94
2022-10-17T08:47:15.116Z,101952.50
2022-10-17T08:50:32.994Z,101961.94
2022-10-17T08:53:44.704Z,101983.25
2022-10-17T08:56:51.815Z,101988.28
2022-10-17T08:59:57.239Z,101994.16
2022-10-17T09:03:17.508Z,102004.47
2022-10-17T09:06:29.989Z,102012.09
2022-10-17T09:09:55.700Z,102016.28
2022-10-17T09:13:11.714Z,102021.41
2022-10-17T09:16:44.964Z,102014.53
2022-10-17T09:20:01.484Z,102018.69
2022-10-17T09:23:14.943Z,102022.06
2022-10-17T09:26:21.560Z,102026.28
2022-10-17T09:29:34.196Z,102015.19
2022-10-17T09:32:43.075Z,102027.97
2022-10-17T09:35:48.871Z,102028.69
2022-10-17T09:38:55.942Z,102028.63
2022-10-17T09:42:03.487Z,102031.16
2022-10-17T09:45:19.537Z,102048.16
2022-10-17T09:48:28.954Z,102033.56
2022-10-17T09:51:34.187Z,102044.59
2022-10-17T09:54:45.853Z,102042.78
2022-10-17T09:57:57.933Z,102041.91
2022-10-17T10:01:24.019Z,102057.13
2022-10-17T10:04:30.383Z,102058.94
2022-10-17T10:07:40.467Z,102059.72
2022-10-17T10:10:45.852Z,102064.72
2022-10-17T10:13:52.164Z,102057.81
2022-10-17T10:16:57.454Z,102063.78
2022-10-17T10:20:02.582Z,102067.91
2022-10-17T10:23:14.523Z,102069.44
2022-10-17T10:26:25.887Z,102065.13
2022-10-17T10:29:34.995Z,102063.34
2022-10-17T10:32:40.104Z,102068.47
2022-10-17T10:35:45.358Z,102067.56
2022-10-17T10:38:55.057Z,102068.41
2022-10-17T10:42:00.172Z,102063.22
2022-10-17T10:45:42.929Z,102075.22
2022-10-17T10:48:52.619Z,102074.25
2022-10-17T10:51:57.898Z,102078.53
2022-10-17T10:55:17.469Z,102082.63
2022-10-17T10:58:42.085Z,102071.38
2022-10-17T11:01:52.968Z,102073.94
2022-10-17T11:05:03.090Z,102074.88
2022-10-17T11:08:18.541Z,102080.84
2022-10-17T11:11:30.331Z,102086.00
2022-10-17T11:14:43.847Z,102084.28
2022-10-17T11:17:58.010Z,102085.09
2022-10-17T11:21:09.188Z,102079.06
2022-10-17T11:24:21.874Z,102078.16
2022-10-17T11:27:28.325Z,102080.69
2022-10-17T11:30:45.768Z,102078.00
2022-10-17T11:33:57.485Z,102074.44
2022-10-17T11:37:07.048Z,102080.31
2022-10-17T11:40:21.965Z,102082.81
2022-10-17T11:43:32.414Z,102072.38
2022-10-17T11:46:38.250Z,102080.16
2022-10-17T11:49:50.970Z,102071.41
2022-10-17T11:53:02.078Z,102082.69
2022-10-17T11:56:07.931Z,102066.41
2022-10-17T12:00:03.064Z,102071.56
2022-10-17T12:03:31.275Z,102072.38
2022-10-17T12:06:54.546Z,102078.28
2022-10-17T12:10:03.782Z,102075.63
2022-10-17T12:13:54.627Z,102080.66
2022-10-17T12:16:59.774Z,102078.72
2022-10-17T12:20:37.471Z,102065.03
2022-10-17T12:23:53.487Z,102065.03
2022-10-17T12:26:58.571Z,102070.00
2022-10-17T12:30:06.639Z,102068.22
2022-10-17T12:33:22.363Z,102067.34
2022-10-17T12:36:48.424Z,102065.56
2022-10-17T12:39:54.572Z,102053.50
2022-10-17T12:42:59.444Z,102049.22
2022-10-17T12:46:05.302Z,102043.25
2022-10-17T12:49:48.418Z,102052.63
2022-10-17T12:53:04.620Z,102044.94
2022-10-17T12:56:11.535Z,102050.13
2022-10-17T12:59:19.289Z,102056.09
2022-10-17T13:02:28.719Z,102051.78
2022-10-17T13:05:36.458Z,102050.13
2022-10-17T13:08:48.078Z,102059.66
2022-10-17T13:11:59.539Z,102062.28
2022-10-17T13:15:08.584Z,102064.84
2022-10-17T13:18:22.054Z,102070.91
2022-10-17T13:21:27.618Z,102068.28
2022-10-17T13:24:35.216Z,102070.94
2022-10-17T13:27:41.931Z,102077.00
2022-10-17T13:30:49.735Z,102082.22
2022-10-17T13:33:58.851Z,102068.75
2022-10-17T13:37:05.616Z,102077.25
2022-10-17T13:40:40.869Z,102076.41
2022-10-17T13:43:44.980Z,102071.38
2022-10-17T13:46:50.347Z,102074.94
2022-10-17T13:49:55.859Z,102069.03
2022-10-17T13:53:20.172Z,102057.88
2022-10-17T13:56:28.825Z,102061.25
2022-10-17T13:59:39.995Z,102065.50
2022-10-17T14:02:44.818Z,102058.69
2022-10-17T14:06:16.227Z,102050.22
2022-10-17T14:09:25.673Z,102061.38
2022-10-17T14:12:30.440Z,102097.41
2022-10-17T14:15:38.215Z,102099.94
2022-10-17T14:18:44.810Z,102112.09
2022-10-17T14:21:50.791Z,102102.75
2022-10-17T14:25:01.540Z,102106.19
2022-10-17T14:28:16.100Z,102075.31
2022-10-17T14:31:30.898Z,102065.94
2022-10-17T14:34:38.288Z,102064.28
2022-10-17T14:37:45.802Z,102066.09
2022-10-17T14:40:52.548Z,102089.38
2022-10-17T14:43:59.595Z,102072.22
2022-10-17T14:47:38.010Z,102089.25
2022-10-17T14:50:36.237Z,102075.72
2022-10-17T14:53:42.231Z,102066.25
2022-10-17T14:56:53.255Z,102065.44
2022-10-17T14:59:58.680Z,102056.84
2022-10-17T15:03:05.079Z,102058.53
2022-10-17T15:06:19.830Z,102061.94
2022-10-17T15:09:28.550Z,102061.13
2022-10-17T15:12:33.753Z,102063.88
2022-10-17T15:15:39.455Z,102065.53
2022-10-17T15:18:45.603Z,102063.94
2022-10-17T15:21:50.477Z,102046.84
2022-10-17T15:24:55.298Z,102049.47
2022-10-17T15:28:00.898Z,102046.91
2022-10-17T15:31:05.798Z,102033.28
2022-10-17T15:34:13.633Z,102037.47
2022-10-17T15:37:22.534Z,102035.84
2022-10-17T15:40:31.452Z,102042.69
2022-10-17T15:43:36.146Z,102033.31
2022-10-17T15:46:41.854Z,102036.72
2022-10-17T15:49:47.973Z,102037.69
2022-10-17T15:52:53.055Z,102027.34
2022-10-17T15:55:57.778Z,102032.66
2022-10-17T15:59:04.405Z,102030.06
2022-10-17T16:02:14.795Z,102041.25
2022-10-17T16:05:23.704Z,102035.44
2022-10-17T16:08:28.811Z,102036.38
2022-10-17T16:11:39.506Z,102030.34
2022-10-17T16:14:44.430Z,102028.63
2022-10-17T16:17:49.164Z,102020.91
2022-10-17T16:20:55.441Z,102035.47
2022-10-17T16:24:00.867Z,102035.41
2022-10-17T16:27:05.754Z,102035.34
2022-10-17T16:30:13.163Z,102040.78
2022-10-17T16:33:19.167Z,102036.69
2022-10-17T16:36:25.404Z,102028.09
2022-10-17T16:39:30.562Z,102020.47
2022-10-17T16:42:35.578Z,102010.13
2022-10-17T16:45:40.794Z,102008.50
2022-10-17T16:48:46.368Z,102001.56
2022-10-17T16:51:52.596Z,102002.63
2022-10-17T16:54:57.656Z,101993.00
2022-10-17T16:58:02.591Z,101992.16
2022-10-17T17:01:11.968Z,101981.91
2022-10-17T17:04:16.894Z,101983.00
2022-10-17T17:07:24.417Z,101973.44
2022-10-17T17:10:29.174Z,101966.63
2022-10-17T17:13:33.881Z,101977.16
2022-10-17T17:16:38.894Z,101978.72
2022-10-17T17:19:43.750Z,101977.94
2022-10-17T17:22:50.873Z,101983.94
2022-10-17T17:25:59.720Z,101984.75
2022-10-17T17:29:05.234Z,101974.44
2022-10-17T17:32:11.905Z,101977.00
2022-10-17T17:35:17.071Z,101956.59
2022-10-17T17:38:23.366Z,101962.63
2022-10-17T17:41:29.427Z,101961.59
2022-10-17T17:44:34.761Z,101959.16
2022-10-17T17:47:39.847Z,101960.00
2022-10-17T17:50:45.006Z,101954.03
2022-10-17T17:53:52.432Z,101948.91
2022-10-17T17:56:57.216Z,101954.22
2022-10-17T18:00:01.935Z,101947.19
2022-10-17T18:03:09.321Z,101947.25
2022-10-17T18:06:14.970Z,101941.31
2022-10-17T18:09:21.621Z,101946.38
2022-10-17T18:12:26.413Z,101943.78
2022-10-17T18:15:31.464Z,101946.44
2022-10-17T18:18:37.534Z,101960.06
2022-10-17T18:21:43.034Z,101943.09
2022-10-17T18:24:49.092Z,101944.78
2022-10-17T18:27:53.809Z,101944.88
2022-10-17T18:30:59.093Z,101934.47
2022-10-17T18:34:04.875Z,101945.78
2022-10-17T18:37:10.580Z,101937.91
2022-10-17T18:40:16.786Z,101928.53
2022-10-17T18:43:21.675Z,101917.56
2022-10-17T18:46:30.488Z,101916.06
2022-10-17T18:49:35.618Z,101915.06
2022-10-17T18:52:40.560Z,101911.53
2022-10-17T18:58:57.335Z,101903.94
2022-10-17T19:02:02.191Z,101899.88
2022-10-17T19:05:08.163Z,101907.56
2022-10-17T19:08:16.621Z,101898.91
2022-10-17T19:11:26.112Z,101899.00
2022-10-17T19:14:31.120Z,101896.44
2022-10-17T19:17:35.858Z,101896.50
2022-10-17T19:20:40.599Z,101891.47
2022-10-17T19:23:52.367Z,101884.56
2022-10-17T19:27:02.653Z,101879.53
2022-10-17T19:30:09.437Z,101875.34
2022-10-17T19:33:18.222Z,101867.75
2022-10-17T19:36:28.894Z,101848.25
2022-10-17T19:39:37.476Z,101848.19
2022-10-17T19:42:43.647Z,101843.97
2022-10-17T19:45:57.402Z,101835.56
2022-10-17T19:49:04.259Z,101831.19
2022-10-17T19:52:09.428Z,101836.41
2022-10-17T19:55:15.079Z,101834.66
2022-10-17T19:58:22.170Z,101817.72
2022-10-17T20:01:29.443Z,101816.88
2022-10-17T20:04:34.218Z,101805.06
2022-10-17T20:07:39.007Z,101807.63
2022-10-17T20:10:44.375Z,101800.31
2022-10-17T20:13:50.960Z,101790.63
2022-10-17T20:16:55.698Z,101792.53
2022-10-17T20:20:02.437Z,101789.75
2022-10-17T20:23:12.188Z,101786.34
2022-10-17T20:26:33.219Z,101777.75
2022-10-17T20:29:43.845Z,101763.56
2022-10-17T20:32:48.700Z,101752.34
2022-10-17T20:35:53.671Z,101747.25
2022-10-17T20:38:59.957Z,101747.34
2022-10-17T20:42:04.858Z,101747.34
2022-10-17T20:45:12.107Z,101744.78
2022-10-17T20:48:17.408Z,101739.50
2022-10-17T20:51:23.344Z,101742.94
2022-10-17T20:54:28.876Z,101734.41
2022-10-17T20:57:33.732Z,101731.72
2022-10-17T21:00:40.921Z,101731.03
2022-10-17T21:03:46.771Z,101729.44
2022-10-17T21:06:53.450Z,101726.06
2022-10-17T21:10:12.243Z,101721.00
2022-10-17T21:13:23.114Z,101720.06
2022-10-17T21:16:30.770Z,101714.72
2022-10-17T21:19:35.580Z,101703.28
2022-10-17T21:22:40.534Z,101694.72
2022-10-17T21:25:45.361Z,101689.50
2022-10-17T21:28:51.014Z,101678.25
2022-10-17T21:31:57.171Z,101680.66
2022-10-17T21:35:02.598Z,101680.09
2022-10-17T21:38:07.946Z,101687.53
2022-10-17T21:41:17.867Z,101681.78
2022-10-17T21:44:27.448Z,101667.28
2022-10-17T21:47:36.203Z,101663.25
2022-10-17T21:50:41.410Z,101661.06
2022-10-17T21:53:46.894Z,101653.09
2022-10-17T21:56:51.987Z,101652.16
2022-10-17T21:59:56.803Z,101633.31
2022-10-17T22:03:07.315Z,101634.28
2022-10-17T22:09:42.447Z,101622.38
2022-10-17T22:12:47.403Z,101623.16
2022-10-17T22:15:52.201Z,101622.25
2022-10-17T22:19:03.179Z,101634.25
2022-10-17T22:22:11.879Z,101625.72
2022-10-17T22:25:16.927Z,101632.56
2022-10-17T22:28:21.735Z,101638.50
2022-10-17T22:31:28.915Z,101614.63
2022-10-17T22:34:35.533Z,101606.16
2022-10-17T22:37:40.295Z,101601.03
2022-10-17T22:40:46.561Z,101601.28
2022-10-17T22:43:51.777Z,101610.78
2022-10-17T22:46:56.450Z,101614.56
2022-10-17T22:50:02.857Z,101600.09
2022-10-17T22:53:08.956Z,101590.69
2022-10-17T22:56:17.870Z,101591.69
2022-10-17T22:59:23.048Z,101584.69
2022-10-17T23:02:28.707Z,101579.63
2022-10-17T23:05:35.281Z,101582.00
2022-10-17T23:08:40.942Z,101571.81
2022-10-17T23:11:45.957Z,101566.00
2022-10-17T23:14:51.615Z,101553.94
2022-10-17T23:17:56.418Z,101543.75
2022-10-17T23:21:02.972Z,101552.91
2022-10-17T23:24:08.296Z,101559.97
2022-10-17T23:27:13.928Z,101555.59
2022-10-17T23:30:19.109Z,101557.28
2022-10-17T23:33:24.195Z,101555.59
2022-10-17T23:39:35.156Z,101536.88
2022-10-17T23:42:39.926Z,101547.97
2022-10-17T23:45:44.766Z,101538.72
2022-10-17T23:48:49.580Z,101529.28
2022-10-17T23:51:55.776Z,101527.81
2022-10-17T23:55:00.598Z,101519.41
2022-10-17T23:58:05.638Z,101527.91
